Time;durP1;ratioP1;P1;durP2;ratioP2;P2;SDS_P1;SDS_P2;PMS_P1;PMS_P2;Temp;Humidity;BMP_temperature;BMP_pressure;BME280_temperature;BME280_humidity;BME280_pressure;Samples;Min_cycle;Max_cycle;Signal;HPM_P1;HPM_P2
2021/10/25 00:00:09;;;;;;;7.43;3.93;;;9.30;99.90;;;;;;5054921;28;20033;-83
2021/10/25 00:02:35;;;;;;;9.43;4.40;;;9.30;99.90;;;;;;5055014;28;20480;-82
2021/10/25 00:05:01;;;;;;;7.27;4.10;;;9.30;99.90;;;;;;5053476;28;20111;-83
2021/10/25 00:07:26;;;;;;;6.37;4.10;;;9.30;99.90;;;;;;5053453;28;20484;-83
2021/10/25 00:09:52;;;;;;;6.43;3.90;;;9.30;99.90;;;;;;5054541;28;20021;-83
2021/10/25 00:12:18;;;;;;;7.00;4.00;;;9.30;99.90;;;;;;5054900;28;20075;-83
2021/10/25 00:14:43;;;;;;;6.57;3.80;;;9.30;99.90;;;;;;5053920;28;20029;-82
2021/10/25 00:17:09;;;;;;;8.10;4.13;;;9.30;99.90;;;;;;5053644;28;20035;-82
2021/10/25 00:19:35;;;;;;;9.37;4.73;;;9.40;99.90;;;;;;5054112;28;20113;-82
2021/10/25 00:22:01;;;;;;;9.27;4.23;;;9.30;99.90;;;;;;5053804;28;20039;-83
2021/10/25 00:24:27;;;;;;;10.03;4.10;;;9.30;99.90;;;;;;5054092;28;20052;-83
2021/10/25 00:26:53;;;;;;;8.43;4.33;;;9.30;99.90;;;;;;5054677;28;20040;-82
2021/10/25 00:29:19;;;;;;;8.17;4.23;;;9.30;99.90;;;;;;5054301;28;20017;-82
2021/10/25 00:31:45;;;;;;;8.47;4.33;;;9.20;99.90;;;;;;5054740;28;20032;-82
2021/10/25 00:34:11;;;;;;;7.90;3.93;;;9.20;99.90;;;;;;5055002;28;20100;-82
2021/10/25 00:36:37;;;;;;;14.03;7.50;;;9.20;99.90;;;;;;5054485;28;20100;-82
2021/10/25 00:39:04;;;;;;;9.20;4.77;;;9.10;99.90;;;;;;5053998;28;20494;-82
2021/10/25 00:41:30;;;;;;;8.67;4.53;;;9.10;99.90;;;;;;5052760;28;20032;-82
2021/10/25 00:43:56;;;;;;;8.70;4.40;;;9.00;99.90;;;;;;5054513;28;20167;-82
2021/10/25 00:46:22;;;;;;;12.10;4.93;;;8.90;99.90;;;;;;5056098;28;20244;-82
2021/10/25 00:48:47;;;;;;;8.47;4.50;;;8.90;99.90;;;;;;5054252;28;20057;-82
2021/10/25 00:51:14;;;;;;;7.00;4.70;;;8.80;99.90;;;;;;5054314;28;20025;-82
2021/10/25 00:53:41;;;;;;;9.53;4.73;;;8.80;99.90;;;;;;5054788;28;20017;-82
2021/10/25 00:56:08;;;;;;;7.60;4.40;;;8.70;99.90;;;;;;5055183;28;20033;-82
2021/10/25 00:58:35;;;;;;;8.17;4.67;;;8.70;99.90;;;;;;5053490;28;20582;-83
2021/10/25 01:01:01;;;;;;;9.00;4.63;;;8.70;99.90;;;;;;5055030;28;20456;-82
2021/10/25 01:03:26;;;;;;;9.40;4.90;;;8.70;99.90;;;;;;5054190;28;20021;-82
2021/10/25 01:05:52;;;;;;;9.53;4.83;;;8.60;99.90;;;;;;5054401;28;20069;-82
2021/10/25 01:08:18;;;;;;;9.20;4.13;;;8.70;99.90;;;;;;5055660;28;20060;-82
2021/10/25 01:10:44;;;;;;;10.03;5.20;;;8.70;99.90;;;;;;5054308;28;20028;-82
2021/10/25 01:13:11;;;;;;;7.17;4.30;;;8.60;99.90;;;;;;5052802;28;20031;-82
2021/10/25 01:15:37;;;;;;;7.63;4.57;;;8.60;99.90;;;;;;5054659;28;20096;-82
2021/10/25 01:18:03;;;;;;;10.83;4.93;;;8.60;99.90;;;;;;5052745;28;20499;-82
2021/10/25 01:20:32;;;;;;;9.47;4.70;;;8.60;99.90;;;;;;5051331;28;20021;-82
2021/10/25 01:23:00;;;;;;;7.82;4.43;;;8.60;99.90;;;;;;5051629;28;20056;-82
2021/10/25 01:25:27;;;;;;;7.77;4.97;;;8.60;99.90;;;;;;5052008;28;20112;-82
2021/10/25 01:27:54;;;;;;;9.87;5.00;;;8.60;99.90;;;;;;5053224;28;20075;-82
2021/10/25 01:30:20;;;;;;;10.10;4.60;;;8.60;99.90;;;;;;5052887;28;20032;-82
2021/10/25 01:32:47;;;;;;;7.93;4.40;;;8.60;99.90;;;;;;5051781;28;20398;-82
2021/10/25 01:35:13;;;;;;;9.63;4.80;;;8.60;99.90;;;;;;5053278;28;20029;-82
2021/10/25 01:37:39;;;;;;;9.03;4.97;;;8.60;99.90;;;;;;5053646;28;20035;-82
2021/10/25 01:40:06;;;;;;;10.37;4.87;;;8.60;99.90;;;;;;5052796;28;20025;-82
2021/10/25 01:42:32;;;;;;;7.87;4.43;;;8.60;99.90;;;;;;5053239;28;20025;-82
2021/10/25 01:44:58;;;;;;;12.73;5.30;;;8.60;99.90;;;;;;5052935;28;20017;-82
2021/10/25 01:47:23;;;;;;;7.63;4.53;;;8.60;99.90;;;;;;5052953;28;20501;-82
2021/10/25 01:49:50;;;;;;;11.43;5.17;;;8.50;99.90;;;;;;5052136;28;20388;-82
2021/10/25 01:52:16;;;;;;;9.03;4.73;;;8.50;99.90;;;;;;5052965;28;20020;-82
2021/10/25 01:54:42;;;;;;;10.30;5.30;;;8.40;99.90;;;;;;5052847;28;20021;-82
2021/10/25 01:57:08;;;;;;;10.07;4.53;;;8.40;99.90;;;;;;5052906;28;20021;-82
2021/10/25 01:59:34;;;;;;;8.00;4.80;;;8.40;99.90;;;;;;5052950;28;20435;-82
2021/10/25 02:02:00;;;;;;;9.77;4.40;;;8.40;99.90;;;;;;5051416;28;20474;-82
2021/10/25 02:04:27;;;;;;;10.87;5.03;;;8.30;99.90;;;;;;5053187;28;20025;-82
2021/10/25 02:06:54;;;;;;;8.43;4.13;;;8.30;99.90;;;;;;5052672;28;20044;-82
2021/10/25 02:09:20;;;;;;;11.00;5.20;;;8.40;99.90;;;;;;5053552;28;20052;-82
2021/10/25 02:11:46;;;;;;;10.13;4.70;;;8.40;99.90;;;;;;5056722;28;20036;-82
2021/10/25 02:14:12;;;;;;;8.47;4.50;;;8.40;99.90;;;;;;5056966;28;20026;-82
2021/10/25 02:16:38;;;;;;;9.27;4.40;;;8.30;99.90;;;;;;5057156;28;20052;-82
2021/10/25 02:19:03;;;;;;;7.13;4.40;;;8.30;99.90;;;;;;5056374;28;20029;-82
2021/10/25 02:21:29;;;;;;;9.47;4.83;;;8.30;99.90;;;;;;5057230;28;20029;-83
2021/10/25 02:23:55;;;;;;;10.13;4.90;;;8.30;99.90;;;;;;5057219;28;20037;-82
2021/10/25 02:26:20;;;;;;;9.13;4.93;;;8.30;99.90;;;;;;5057127;28;20053;-82
2021/10/25 02:28:46;;;;;;;7.77;4.57;;;8.20;99.90;;;;;;5057309;28;20025;-82
2021/10/25 02:31:12;;;;;;;9.50;4.57;;;8.20;99.90;;;;;;5056450;28;20017;-82
2021/10/25 02:33:38;;;;;;;9.13;4.33;;;8.20;99.90;;;;;;5056440;28;20155;-82
2021/10/25 02:36:06;;;;;;;7.23;4.40;;;8.20;99.90;;;;;;5056041;28;20028;-82
2021/10/25 02:38:36;;;;;;;8.60;5.20;;;8.30;99.90;;;;;;5057275;28;20021;-82
2021/10/25 02:41:03;;;;;;;8.63;4.53;;;8.20;99.90;;;;;;5056452;28;20028;-82
2021/10/25 02:43:29;;;;;;;8.17;4.70;;;8.20;99.90;;;;;;5056906;28;20427;-82
2021/10/25 02:45:57;;;;;;;7.90;4.60;;;8.20;99.90;;;;;;5055899;28;20489;-82
2021/10/25 02:48:23;;;;;;;10.10;4.60;;;8.20;99.90;;;;;;5057056;28;20029;-82
2021/10/25 02:50:49;;;;;;;11.50;5.10;;;8.20;99.90;;;;;;5056670;28;20482;-82
2021/10/25 02:53:15;;;;;;;9.87;4.90;;;8.20;99.90;;;;;;5057314;28;20031;-82
2021/10/25 02:55:41;;;;;;;11.20;4.97;;;8.20;99.90;;;;;;5057025;28;20024;-82
2021/10/25 02:58:06;;;;;;;7.70;4.50;;;8.20;99.90;;;;;;5055876;28;20028;-82
2021/10/25 03:00:32;;;;;;;7.77;4.73;;;8.20;99.90;;;;;;5055202;28;20089;-82
2021/10/25 03:02:58;;;;;;;8.53;4.30;;;8.10;99.90;;;;;;5057080;28;20047;-82
2021/10/25 03:05:23;;;;;;;7.87;4.33;;;8.10;99.90;;;;;;5056915;28;20028;-82
2021/10/25 03:07:49;;;;;;;8.33;4.50;;;8.20;99.90;;;;;;5054762;28;20051;-82
2021/10/25 03:10:16;;;;;;;8.63;4.63;;;8.20;99.90;;;;;;5054515;28;20021;-81
2021/10/25 03:12:42;;;;;;;9.50;4.50;;;8.20;99.90;;;;;;5054960;28;20064;-82
2021/10/25 03:15:08;;;;;;;7.77;4.90;;;8.30;99.90;;;;;;5057185;28;20017;-82
2021/10/25 03:17:35;;;;;;;7.70;4.80;;;8.20;99.90;;;;;;5057012;28;20025;-82
2021/10/25 03:20:02;;;;;;;9.33;4.97;;;8.30;99.90;;;;;;5056245;28;20020;-82
2021/10/25 03:22:29;;;;;;;8.53;4.80;;;8.20;99.90;;;;;;5057345;28;20089;-82
2021/10/25 03:24:54;;;;;;;13.83;4.63;;;8.20;99.90;;;;;;5057391;28;20108;-82
2021/10/25 03:27:20;;;;;;;10.00;4.30;;;8.30;99.90;;;;;;5057395;28;20517;-82
2021/10/25 03:29:46;;;;;;;7.80;4.47;;;8.30;99.90;;;;;;5056694;28;20028;-83
2021/10/25 03:32:11;;;;;;;9.40;4.83;;;8.20;99.90;;;;;;5056948;28;20021;-82
2021/10/25 03:34:38;;;;;;;8.23;4.60;;;8.10;99.90;;;;;;5057375;28;20381;-82
2021/10/25 03:37:04;;;;;;;11.03;4.60;;;8.20;99.90;;;;;;5057652;28;20013;-82
2021/10/25 03:39:33;;;;;;;7.30;4.23;;;8.20;99.90;;;;;;5056719;28;20045;-83
2021/10/25 03:42:00;;;;;;;10.77;5.22;;;8.30;99.90;;;;;;5057527;28;20021;-82
2021/10/25 03:44:35;;;;;;;9.57;4.40;;;8.20;99.90;;;;;;5056092;28;20032;-82
2021/10/25 03:47:06;;;;;;;9.20;4.63;;;8.20;99.90;;;;;;5057690;28;20045;-83
2021/10/25 03:51:59;;;;;;;10.20;4.33;;;8.10;99.90;;;;;;5057403;28;20029;-82
2021/10/25 03:54:35;;;;;;;8.27;4.37;;;8.10;99.90;;;;;;5057699;28;20028;-82
2021/10/25 04:26:26;;;;;;;8.70;4.30;;;8.30;99.90;;;;;;5054733;28;20032;-82
2021/10/25 04:28:52;;;;;;;11.07;5.70;;;8.20;99.90;;;;;;5054487;28;20108;-82
2021/10/25 04:31:18;;;;;;;8.57;4.40;;;8.30;99.90;;;;;;5053974;28;20067;-82
2021/10/25 04:33:44;;;;;;;7.57;4.53;;;8.30;99.90;;;;;;5053242;28;20017;-81
2021/10/25 04:36:10;;;;;;;9.20;4.20;;;8.30;99.90;;;;;;5054789;28;20028;-82
2021/10/25 04:38:36;;;;;;;7.43;4.60;;;8.20;99.90;;;;;;5055137;28;20028;-82
2021/10/25 04:41:02;;;;;;;7.43;4.57;;;8.30;99.90;;;;;;5052911;28;20036;-81
2021/10/25 04:43:28;;;;;;;8.77;4.10;;;8.30;99.90;;;;;;5053332;28;20029;-82
2021/10/25 04:45:54;;;;;;;7.87;4.33;;;8.30;99.90;;;;;;5054862;28;20498;-83
2021/10/25 04:48:19;;;;;;;6.90;4.30;;;8.30;99.90;;;;;;5054708;28;20146;-82
2021/10/25 04:50:45;;;;;;;8.73;4.37;;;8.30;99.90;;;;;;5054411;28;20049;-82
2021/10/25 04:53:11;;;;;;;9.17;4.60;;;8.20;99.90;;;;;;5053479;28;20027;-82
2021/10/25 04:55:37;;;;;;;9.57;4.37;;;8.30;99.90;;;;;;5055690;28;20100;-82
2021/10/25 04:58:03;;;;;;;7.83;4.00;;;8.30;99.90;;;;;;5055012;28;20048;-82
2021/10/25 05:00:28;;;;;;;7.20;4.27;;;8.20;99.90;;;;;;5054567;28;20079;-81
2021/10/25 05:02:55;;;;;;;9.63;5.00;;;8.30;99.90;;;;;;5054002;28;20495;-82
2021/10/25 05:05:21;;;;;;;15.23;7.23;;;8.30;99.90;;;;;;5055558;28;20071;-82
2021/10/25 05:07:47;;;;;;;9.40;4.77;;;8.30;99.90;;;;;;5055170;28;20040;-82
2021/10/25 05:10:13;;;;;;;9.07;4.37;;;8.30;99.90;;;;;;5053765;28;20474;-82
2021/10/25 05:12:39;;;;;;;8.73;4.53;;;8.30;99.90;;;;;;5054863;28;20025;-82
2021/10/25 05:15:05;;;;;;;8.53;4.33;;;8.30;99.90;;;;;;5053556;28;20466;-81
2021/10/25 05:17:31;;;;;;;9.10;4.00;;;8.30;99.90;;;;;;5053714;28;20068;-82
2021/10/25 05:19:56;;;;;;;10.40;4.87;;;8.30;99.90;;;;;;5054579;28;20036;-82
2021/10/25 05:22:23;;;;;;;14.27;5.07;;;8.30;99.90;;;;;;5053523;28;20036;-81
2021/10/25 05:24:49;;;;;;;10.13;4.33;;;8.20;99.90;;;;;;5055206;28;20032;-83
2021/10/25 05:27:16;;;;;;;7.93;4.17;;;8.30;99.90;;;;;;5054668;28;20052;-82
2021/10/25 05:29:41;;;;;;;8.20;4.70;;;8.30;99.90;;;;;;5052474;28;20425;-82
2021/10/25 05:32:07;;;;;;;9.67;4.67;;;8.20;99.90;;;;;;5054265;28;20044;-82
2021/10/25 05:34:34;;;;;;;8.50;4.13;;;8.30;99.90;;;;;;5052820;28;20449;-82
2021/10/25 05:37:01;;;;;;;8.50;4.23;;;8.30;99.90;;;;;;5053846;28;20021;-82
2021/10/25 05:39:27;;;;;;;8.07;4.23;;;8.40;99.90;;;;;;5052912;28;20016;-82
2021/10/25 05:41:53;;;;;;;7.63;4.10;;;8.40;99.90;;;;;;5054303;28;20061;-82
2021/10/25 05:44:19;;;;;;;9.13;4.00;;;8.40;99.90;;;;;;5054379;28;20029;-82
2021/10/25 05:46:45;;;;;;;7.83;4.63;;;8.40;99.90;;;;;;5053307;28;20031;-83
2021/10/25 05:49:10;;;;;;;7.93;4.17;;;8.30;99.90;;;;;;5054264;28;20028;-83
2021/10/25 05:51:36;;;;;;;7.83;4.13;;;8.30;99.90;;;;;;5055230;28;20090;-83
2021/10/25 05:54:04;;;;;;;9.03;4.00;;;8.40;99.90;;;;;;5055240;28;20444;-83
2021/10/25 05:56:30;;;;;;;7.37;4.40;;;8.30;99.90;;;;;;5054838;28;20491;-83
2021/10/25 05:58:56;;;;;;;10.30;4.43;;;8.20;99.90;;;;;;5054025;28;20375;-83
2021/10/25 06:01:27;;;;;;;9.37;4.83;;;8.20;99.90;;;;;;5054742;28;20060;-83
2021/10/25 06:04:04;;;;;;;8.87;4.43;;;8.30;99.90;;;;;;5053505;28;20032;-82
2021/10/25 06:06:30;;;;;;;7.87;4.70;;;8.30;99.90;;;;;;5052983;28;20021;-82
2021/10/25 06:08:56;;;;;;;11.00;4.97;;;8.30;99.90;;;;;;5050724;28;20171;-82
2021/10/25 06:11:21;;;;;;;9.80;4.63;;;8.30;99.90;;;;;;5051426;28;20017;-83
2021/10/25 06:13:47;;;;;;;8.73;4.50;;;8.30;99.90;;;;;;5052576;28;20021;-82
2021/10/25 06:16:18;;;;;;;7.63;4.50;;;8.30;99.90;;;;;;5050931;28;20155;-82
2021/10/25 06:18:44;;;;;;;6.87;3.57;;;8.20;99.90;;;;;;5052486;28;20370;-82
2021/10/25 06:21:11;;;;;;;7.47;3.83;;;8.20;99.90;;;;;;5050647;28;20053;-82
2021/10/25 06:23:37;;;;;;;9.83;4.57;;;8.20;99.90;;;;;;5052863;28;20486;-82
2021/10/25 06:26:03;;;;;;;7.50;4.43;;;8.20;99.90;;;;;;5051210;28;20409;-82
2021/10/25 06:28:30;;;;;;;9.30;5.10;;;8.20;99.90;;;;;;5052556;28;20032;-81
2021/10/25 06:31:03;;;;;;;11.00;5.30;;;8.20;99.90;;;;;;5050278;28;20452;-81
2021/10/25 06:33:29;;;;;;;9.60;5.27;;;8.20;99.90;;;;;;5051116;28;20021;-81
2021/10/25 06:36:06;;;;;;;12.63;5.07;;;8.20;99.90;;;;;;5051819;28;20021;-82
2021/10/25 06:38:41;;;;;;;9.10;5.03;;;8.10;99.90;;;;;;5052796;28;20109;-82
2021/10/25 06:41:07;;;;;;;7.37;4.80;;;8.20;99.90;;;;;;5052163;28;20025;-82
2021/10/25 06:43:33;;;;;;;14.73;6.97;;;8.20;99.90;;;;;;5051022;28;20508;-82
2021/10/25 06:45:59;;;;;;;13.53;6.30;;;8.20;99.90;;;;;;5051567;28;20032;-82
2021/10/25 06:48:25;;;;;;;12.37;5.90;;;8.10;99.90;;;;;;5052627;28;20025;-82
2021/10/25 06:50:51;;;;;;;10.67;4.87;;;8.10;99.90;;;;;;5052065;28;20028;-81
2021/10/25 06:53:17;;;;;;;10.33;5.20;;;8.10;99.90;;;;;;5051102;28;20017;-82
2021/10/25 06:55:44;;;;;;;8.87;4.40;;;8.10;99.90;;;;;;5052911;28;20167;-82
2021/10/25 06:58:11;;;;;;;9.37;4.60;;;8.20;99.90;;;;;;5055951;28;20032;-82
2021/10/25 07:00:37;;;;;;;8.53;4.30;;;8.20;99.90;;;;;;5054394;28;20033;-82
2021/10/25 07:03:02;;;;;;;10.73;4.80;;;8.20;99.90;;;;;;5056309;28;20079;-82
2021/10/25 07:05:31;;;;;;;11.80;5.27;;;8.20;99.90;;;;;;5056381;28;20024;-81
2021/10/25 07:07:57;;;;;;;8.45;4.78;;;8.20;99.90;;;;;;5056393;28;20043;-82
2021/10/25 07:10:23;;;;;;;9.13;5.07;;;8.20;99.90;;;;;;5056045;28;20482;-82
2021/10/25 07:12:49;;;;;;;11.30;4.40;;;8.20;99.90;;;;;;5054917;28;20111;-82
2021/10/25 07:15:16;;;;;;;9.07;4.53;;;8.30;99.90;;;;;;5056279;28;20462;-81
2021/10/25 07:17:57;;;;;;;8.97;4.30;;;8.30;99.90;;;;;;5056225;28;20021;-82
2021/10/25 08:04:11;;;;;;;12.73;5.50;;;9.00;99.90;;;;;;5056447;28;20025;-82
2021/10/25 08:11:41;;;;;;;10.95;5.03;;;9.00;99.90;;;;;;5056610;28;20021;-83
2021/10/25 08:14:09;;;;;;;10.67;5.20;;;9.10;99.90;;;;;;5058237;28;20445;-82
2021/10/25 08:19:26;;;;;;;11.50;5.40;;;9.40;99.90;;;;;;5058994;28;20025;-83
2021/10/25 08:22:08;;;;;;;9.93;4.57;;;9.40;99.90;;;;;;5060308;28;20095;-85
2021/10/25 08:24:37;;;;;;;9.40;5.03;;;9.40;99.90;;;;;;5057138;28;20083;-85
2021/10/25 08:27:05;;;;;;;12.57;5.10;;;9.40;99.90;;;;;;5055817;28;20025;-85
2021/10/25 08:29:35;;;;;;;9.47;4.83;;;9.40;99.90;;;;;;5053287;28;20025;-84
2021/10/25 08:32:18;;;;;;;10.40;4.90;;;9.50;99.90;;;;;;5053632;28;20066;-84
2021/10/25 08:39:58;;;;;;;7.97;4.47;;;9.50;99.90;;;;;;5055014;28;20036;-84
2021/10/25 08:42:30;;;;;;;9.65;5.20;;;9.50;99.90;;;;;;5055875;28;20028;-84
2021/10/25 08:45:01;;;;;;;10.07;4.90;;;9.60;99.90;;;;;;5054596;28;20025;-85
2021/10/25 08:47:32;;;;;;;9.43;4.40;;;9.60;99.90;;;;;;5054751;28;20021;-83
2021/10/25 08:49:58;;;;;;;9.40;4.77;;;9.70;99.90;;;;;;5052716;28;20021;-84
2021/10/25 08:52:25;;;;;;;10.63;5.00;;;9.80;99.90;;;;;;5053068;28;20385;-84
2021/10/25 08:54:52;;;;;;;9.10;4.10;;;9.90;99.90;;;;;;5053128;28;20232;-84
2021/10/25 08:57:23;;;;;;;11.80;4.10;;;10.00;99.90;;;;;;5052704;28;20492;-84
2021/10/25 09:00:00;;;;;;;8.50;4.10;;;10.00;99.90;;;;;;5053579;28;20032;-85
2021/10/25 09:02:27;;;;;;;11.33;5.00;;;10.10;99.90;;;;;;5052656;28;20024;-84
2021/10/25 09:05:03;;;;;;;8.73;4.10;;;10.10;99.90;;;;;;5052600;28;20057;-85
2021/10/25 09:07:30;;;;;;;5.97;3.70;;;10.20;99.90;;;;;;5053034;28;20053;-85
2021/10/25 09:09:56;;;;;;;9.20;4.30;;;10.20;99.90;;;;;;5053466;28;20028;-84
2021/10/25 09:12:22;;;;;;;11.57;4.23;;;10.30;99.90;;;;;;5053451;28;20025;-85
2021/10/25 09:14:55;;;;;;;11.27;4.33;;;10.30;99.90;;;;;;5052282;28;20025;-84
2021/10/25 09:17:20;;;;;;;8.80;3.90;;;10.40;99.90;;;;;;5053464;28;20029;-85
2021/10/25 09:19:48;;;;;;;7.47;3.80;;;10.40;99.90;;;;;;5051648;28;20082;-85
2021/10/25 09:22:18;;;;;;;7.20;4.00;;;10.40;99.90;;;;;;5052101;28;20033;-84
2021/10/25 09:24:57;;;;;;;8.40;4.10;;;10.40;99.90;;;;;;5052262;28;20032;-84
2021/10/25 09:27:34;;;;;;;;;;;10.40;99.90;;;;;;5052766;28;20024;-84
2021/10/25 09:30:20;;;;;;;7.40;3.60;;;10.50;99.90;;;;;;5051552;28;20369;-84
2021/10/25 09:32:47;;;;;;;7.97;3.80;;;10.50;99.90;;;;;;5051990;28;20029;-84
2021/10/25 09:35:19;;;;;;;6.90;3.50;;;10.50;99.90;;;;;;5053534;28;20035;-83
2021/10/25 09:37:57;;;;;;;11.20;4.17;;;10.60;99.90;;;;;;5052569;28;20162;-84
2021/10/25 09:41:26;;;;;;;8.37;3.37;;;10.60;99.90;;;;;;5054247;28;20378;-85
2021/10/25 09:51:02;;;;;;;6.23;3.23;;;10.80;99.90;;;;;;5052869;28;20074;-86
2021/10/25 09:53:45;;;;;;;6.47;2.97;;;10.80;99.90;;;;;;5052819;28;20025;-87
2021/10/25 09:56:12;;;;;;;9.10;3.60;;;10.80;99.90;;;;;;5052642;28;20121;-85
2021/10/25 09:59:06;;;;;;;8.00;3.70;;;10.90;99.90;;;;;;5054932;28;20040;-85
2021/10/25 10:01:33;;;;;;;9.80;3.20;;;11.00;99.90;;;;;;5053287;28;20031;-84
2021/10/25 10:03:59;;;;;;;7.33;3.27;;;11.10;99.90;;;;;;5053373;28;20025;-84
2021/10/25 10:06:25;;;;;;;7.43;3.47;;;11.10;99.90;;;;;;5054848;28;20025;-85
2021/10/25 10:08:52;;;;;;;7.40;3.30;;;11.20;99.90;;;;;;5054401;28;20031;-84
2021/10/25 10:11:19;;;;;;;6.07;3.23;;;11.20;99.90;;;;;;5053181;28;20075;-85
2021/10/25 10:13:45;;;;;;;7.47;3.23;;;11.30;99.90;;;;;;5054615;28;20100;-85
2021/10/25 10:16:12;;;;;;;7.90;3.40;;;11.30;99.90;;;;;;5052796;28;20025;-85
2021/10/25 10:18:51;;;;;;;7.83;3.20;;;11.40;99.90;;;;;;5054330;28;20052;-84
2021/10/25 10:21:18;;;;;;;7.10;3.42;;;11.50;99.90;;;;;;5053907;28;20142;-85
2021/10/25 10:23:51;;;;;;;14.23;5.30;;;11.60;99.90;;;;;;5055661;28;20037;-85
2021/10/25 10:26:17;;;;;;;6.53;3.50;;;11.70;99.90;;;;;;5054300;28;20075;-85
2021/10/25 10:28:50;;;;;;;7.30;3.40;;;11.80;99.90;;;;;;5053686;28;20124;-84
2021/10/25 10:31:24;;;;;;;7.40;3.00;;;11.80;99.90;;;;;;5059781;28;20017;-85
2021/10/25 10:33:55;;;;;;;14.10;4.03;;;11.80;99.90;;;;;;5062429;28;20020;-84
2021/10/25 10:36:49;;;;;;;10.67;4.03;;;11.90;99.90;;;;;;5060361;28;20024;-83
2021/10/25 10:39:16;;;;;;;7.93;3.80;;;11.90;99.90;;;;;;5059607;28;20033;-84
2021/10/25 10:41:51;;;;;;;7.63;3.27;;;11.90;99.90;;;;;;5061546;28;20043;-84
2021/10/25 10:44:20;;;;;;;7.57;3.93;;;12.00;99.90;;;;;;5063781;28;20295;-85
2021/10/25 10:46:48;;;;;;;6.82;3.25;;;12.00;99.90;;;;;;5064167;28;20086;-84
2021/10/25 10:49:39;;;;;;;7.60;3.70;;;12.00;99.90;;;;;;5065562;28;20048;-82
2021/10/25 10:52:37;;;;;;;7.33;3.30;;;12.10;99.90;;;;;;5068477;28;20025;-85
2021/10/25 10:55:17;;;;;;;8.83;3.23;;;12.00;99.90;;;;;;5063956;28;20017;-84
2021/10/25 11:00:26;;;;;;;5.50;3.50;;;12.00;99.90;;;;;;5062750;28;20363;-85
2021/10/25 11:02:55;;;;;;;6.53;3.30;;;12.10;99.90;;;;;;5062767;28;20063;-85
2021/10/25 11:06:02;;;;;;;8.17;3.47;;;12.10;99.90;;;;;;5062809;28;20021;-85
2021/10/25 11:08:38;;;;;;;9.60;3.80;;;12.10;99.90;;;;;;5061479;28;20031;-85
2021/10/25 11:11:16;;;;;;;6.40;3.47;;;12.10;99.90;;;;;;5062275;28;20482;-84
2021/10/25 11:14:03;;;;;;;10.57;4.00;;;12.20;99.90;;;;;;5063854;28;20025;-83
2021/10/25 11:19:00;;;;;;;7.43;3.97;;;12.20;99.90;;;;;;5065465;28;20040;-84
2021/10/25 11:21:35;;;;;;;12.43;4.27;;;12.30;99.90;;;;;;5064721;28;20064;-84
2021/10/25 11:24:10;;;;;;;8.10;3.58;;;12.30;99.90;;;;;;5063525;28;20049;-84
2021/10/25 11:26:43;;;;;;;8.03;3.60;;;12.30;99.90;;;;;;5063226;28;20025;-85
2021/10/25 11:29:13;;;;;;;6.50;3.30;;;12.40;99.90;;;;;;5058399;28;20520;-85
2021/10/25 11:31:55;;;;;;;6.50;3.67;;;12.40;99.90;;;;;;5059982;28;20029;-83
2021/10/25 11:34:26;;;;;;;6.03;3.40;;;12.40;99.90;;;;;;5058443;28;20025;-83
2021/10/25 11:37:05;;;;;;;7.15;3.50;;;12.50;99.90;;;;;;5058689;28;20070;-84
2021/10/25 11:39:47;;;;;;;5.85;3.55;;;12.50;99.90;;;;;;5057640;28;20442;-83
2021/10/25 11:42:17;;;;;;;10.43;4.40;;;12.50;99.90;;;;;;5059830;28;20058;-84
2021/10/25 11:44:48;;;;;;;9.10;3.80;;;12.50;99.90;;;;;;5058605;28;20025;-84
2021/10/25 11:47:24;;;;;;;5.37;3.00;;;12.50;99.90;;;;;;5060462;28;20017;-84
2021/10/25 11:49:57;;;;;;;7.63;3.60;;;12.60;99.90;;;;;;5059640;28;20374;-84
2021/10/25 11:52:23;;;;;;;8.50;3.03;;;12.60;99.90;;;;;;5059921;28;20547;-85
2021/10/25 11:54:54;;;;;;;7.05;3.30;;;12.60;99.90;;;;;;5059992;28;20021;-85
2021/10/25 11:57:21;;;;;;;7.38;3.50;;;12.70;99.90;;;;;;5059764;28;20101;-83
2021/10/25 12:00:02;;;;;;;7.72;4.00;;;12.60;99.90;;;;;;5057650;28;20412;-85
2021/10/25 12:02:29;;;;;;;5.85;3.25;;;12.60;99.90;;;;;;5060519;28;20079;-85
2021/10/25 12:04:55;;;;;;;9.73;3.42;;;12.60;99.90;;;;;;5060356;28;20029;-82
2021/10/25 12:07:22;;;;;;;5.20;2.60;;;12.60;99.90;;;;;;5055887;28;20036;-84
2021/10/25 12:10:02;;;;;;;7.85;3.10;;;12.60;99.90;;;;;;5054432;28;20028;-84
2021/10/25 12:12:28;;;;;;;5.60;3.17;;;12.60;99.90;;;;;;5054772;28;20016;-85
2021/10/25 12:15:12;;;;;;;5.65;2.80;;;12.60;99.90;;;;;;5054981;28;20104;-84
2021/10/25 12:17:38;;;;;;;4.85;2.35;;;12.60;99.90;;;;;;5055078;28;20436;-84
2021/10/25 12:20:09;;;;;;;6.05;3.15;;;12.70;99.90;;;;;;5054179;28;20108;-85
2021/10/25 12:22:35;;;;;;;5.60;2.67;;;12.70;99.90;;;;;;5077877;22;20040;-84
2021/10/25 12:25:02;;;;;;;4.85;2.90;;;12.80;99.90;;;;;;5055317;28;20056;-84
2021/10/25 12:27:36;;;;;;;7.40;2.97;;;12.80;99.90;;;;;;5055590;28;20051;-84
2021/10/25 12:30:14;;;;;;;10.27;3.47;;;12.80;99.90;;;;;;5056437;28;20409;-84
2021/10/25 12:32:58;;;;;;;6.78;3.05;;;12.80;99.90;;;;;;5055221;28;20021;-84
2021/10/25 12:35:45;;;;;;;6.55;3.33;;;12.80;99.90;;;;;;5055264;28;20481;-84
2021/10/25 12:38:15;;;;;;;8.55;3.63;;;12.80;99.90;;;;;;5056730;28;20051;-84
2021/10/25 12:40:45;;;;;;;8.27;3.03;;;12.80;99.90;;;;;;5054685;28;20618;-84
2021/10/25 12:43:12;;;;;;;7.50;3.15;;;12.90;99.90;;;;;;5056065;28;20039;-84
2021/10/25 12:45:43;;;;;;;5.30;2.78;;;12.90;99.90;;;;;;5054966;28;20036;-84
2021/10/25 12:48:12;;;;;;;6.57;2.85;;;12.90;99.90;;;;;;5056883;28;20114;-84
2021/10/25 12:50:38;;;;;;;;;;;12.90;99.90;;;;;;5057152;28;20024;-84
2021/10/25 12:53:10;;;;;;;8.25;3.30;;;12.80;99.90;;;;;;5055882;28;20003;-84
2021/10/25 12:55:36;;;;;;;5.93;3.17;;;12.80;99.90;;;;;;5056857;28;20021;-84
2021/10/25 12:58:07;;;;;;;6.65;3.50;;;12.80;99.90;;;;;;5055959;28;20074;-85
2021/10/25 13:00:33;;;;;;;6.25;3.40;;;12.80;99.90;;;;;;5056811;28;20021;-84
2021/10/25 13:03:00;;;;;;;7.70;2.72;;;12.80;99.90;;;;;;5056442;28;20032;-84
2021/10/25 13:05:40;;;;;;;7.03;3.20;;;12.80;99.90;;;;;;5055463;28;20028;-84
2021/10/25 13:08:08;;;;;;;6.43;3.28;;;12.80;99.90;;;;;;5055553;28;20029;-85
2021/10/25 13:10:38;;;;;;;7.35;2.78;;;12.80;99.90;;;;;;5056596;28;20017;-84
2021/10/25 13:13:06;;;;;;;5.93;2.60;;;12.80;99.90;;;;;;5056803;28;20024;-85
2021/10/25 13:15:33;;;;;;;4.88;2.83;;;12.80;99.90;;;;;;5056012;28;20047;-84
2021/10/25 13:18:00;;;;;;;9.93;4.93;;;12.80;99.90;;;;;;5055802;28;20389;-84
2021/10/25 13:20:29;;;;;;;8.15;3.78;;;12.80;99.90;;;;;;5055129;28;20031;-84
2021/10/25 13:22:59;;;;;;;7.18;3.70;;;12.80;99.90;;;;;;5055282;28;20049;-85
2021/10/25 13:25:26;;;;;;;6.85;3.17;;;12.80;99.90;;;;;;5056341;28;20036;-85
2021/10/25 13:27:53;;;;;;;7.35;3.47;;;12.80;99.90;;;;;;5060963;28;20481;-85
2021/10/25 13:30:20;;;;;;;8.20;3.90;;;12.80;99.90;;;;;;5058145;28;20033;-84
2021/10/25 13:32:47;;;;;;;7.95;2.67;;;12.80;99.90;;;;;;5057541;28;20029;-85
2021/10/25 13:35:14;;;;;;;5.32;2.72;;;12.80;99.90;;;;;;5059281;28;20043;-85
2021/10/25 13:37:40;;;;;;;7.95;3.50;;;12.80;99.90;;;;;;5055533;28;20029;-85
2021/10/25 13:40:06;;;;;;;9.60;3.88;;;12.80;99.90;;;;;;5057659;28;20040;-85
2021/10/25 13:42:33;;;;;;;6.03;2.88;;;12.70;99.90;;;;;;5056888;28;20037;-84
2021/10/25 13:44:58;;;;;;;6.47;2.40;;;12.80;99.90;;;;;;5053175;28;20025;-84
2021/10/25 13:47:26;;;;;;;4.50;2.35;;;12.80;99.90;;;;;;5052891;28;20029;-84
2021/10/25 13:49:52;;;;;;;5.18;2.47;;;12.80;99.90;;;;;;5053919;28;20092;-84
2021/10/25 13:52:18;;;;;;;5.05;2.25;;;12.80;99.90;;;;;;5052392;28;20067;-84
2021/10/25 13:54:44;;;;;;;6.32;2.45;;;12.80;99.90;;;;;;5054434;28;20029;-84
2021/10/25 13:57:10;;;;;;;5.32;2.20;;;12.80;99.90;;;;;;5052809;28;20017;-85
2021/10/25 13:59:37;;;;;;;6.85;2.35;;;12.80;99.90;;;;;;5053020;28;20025;-84
2021/10/25 14:02:07;;;;;;;5.43;2.45;;;12.90;99.90;;;;;;5052941;28;20385;-84
2021/10/25 14:04:37;;;;;;;6.25;1.70;;;12.90;99.90;;;;;;5056741;28;20025;-84
2021/10/25 14:07:04;;;;;;;7.97;1.85;;;12.80;99.90;;;;;;5061422;28;20052;-84
2021/10/25 14:09:29;;;;;;;3.80;1.73;;;12.90;99.90;;;;;;5061135;28;20021;-84
2021/10/25 14:11:58;;;;;;;5.05;1.73;;;12.90;99.90;;;;;;5060692;28;20067;-84
2021/10/25 14:14:26;;;;;;;5.38;1.92;;;12.90;99.90;;;;;;5063488;28;20121;-84
2021/10/25 14:16:52;;;;;;;5.68;2.15;;;12.80;99.90;;;;;;5061572;28;20029;-84
2021/10/25 14:19:20;;;;;;;3.72;2.10;;;12.80;99.90;;;;;;5061576;28;20029;-84
2021/10/25 14:21:46;;;;;;;6.15;2.10;;;12.90;99.90;;;;;;5061210;28;20124;-84
2021/10/25 14:24:12;;;;;;;7.05;1.95;;;12.90;99.90;;;;;;5061828;28;20093;-84
2021/10/25 14:26:39;;;;;;;5.13;2.10;;;12.80;99.90;;;;;;5064518;28;20025;-84
2021/10/25 14:29:06;;;;;;;4.18;1.85;;;12.80;99.90;;;;;;5060824;28;20032;-84
2021/10/25 14:31:33;;;;;;;5.75;2.20;;;12.80;99.90;;;;;;5062623;28;20044;-84
2021/10/25 14:33:59;;;;;;;4.03;1.92;;;12.80;99.90;;;;;;5062041;28;20108;-84
2021/10/25 14:36:25;;;;;;;4.63;2.00;;;12.80;99.90;;;;;;5060997;28;20040;-84
2021/10/25 14:39:05;;;;;;;5.70;2.20;;;12.70;99.90;;;;;;5061005;28;20028;-85